createdAt,value
2023-05-22T00:00:20.941Z,17.67
2023-05-22T00:02:48.599Z,18.03
2023-05-22T00:05:15.761Z,16.77
2023-05-22T00:07:43.353Z,16.47
2023-05-22T00:10:10.945Z,15.60
2023-05-22T00:12:37.946Z,15.67
2023-05-22T00:15:06.005Z,14.87
2023-05-22T00:17:34.035Z,15.20
2023-05-22T00:20:07.315Z,15.43
2023-05-22T00:22:36.669Z,14.23
2023-05-22T00:25:04.521Z,15.33
2023-05-22T00:27:31.497Z,13.80
2023-05-22T00:29:58.921Z,15.07
2023-05-22T00:32:26.443Z,13.67
2023-05-22T00:34:53.532Z,14.77
2023-05-22T00:37:20.319Z,14.50
2023-05-22T00:39:47.229Z,14.03
2023-05-22T00:42:14.845Z,13.23
2023-05-22T00:44:42.001Z,14.03
2023-05-22T00:47:09.203Z,13.67
2023-05-22T00:49:36.580Z,14.53
2023-05-22T00:52:04.320Z,13.60
2023-05-22T00:54:32.683Z,14.50
2023-05-22T00:57:00.864Z,13.90
2023-05-22T00:59:28.271Z,13.60
2023-05-22T01:01:57.227Z,14.07
2023-05-22T01:04:26.515Z,14.33
2023-05-22T01:06:55.434Z,13.80
2023-05-22T01:09:22.892Z,14.90
2023-05-22T01:11:56.155Z,14.63
2023-05-22T01:14:26.684Z,15.07
2023-05-22T01:17:00.009Z,13.97
2023-05-22T01:19:47.526Z,14.53
2023-05-22T01:22:25.019Z,14.13
2023-05-22T01:24:52.164Z,14.47
2023-05-22T01:27:35.318Z,15.30
2023-05-22T01:30:11.727Z,15.93
2023-05-22T01:32:38.916Z,15.00
2023-05-22T01:35:13.085Z,14.80
2023-05-22T01:37:40.883Z,15.50
2023-05-22T01:40:08.809Z,16.20
2023-05-22T01:42:36.299Z,15.57
2023-05-22T01:45:03.679Z,15.13
2023-05-22T01:47:31.446Z,16.70
2023-05-22T01:49:58.661Z,16.43
2023-05-22T01:52:44.614Z,15.00
2023-05-22T01:55:22.501Z,16.60
2023-05-22T01:58:18.560Z,15.17
2023-05-22T02:00:47.000Z,16.27
2023-05-22T02:03:19.252Z,14.73
2023-05-22T02:05:53.576Z,15.80
2023-05-22T02:08:22.369Z,16.60
2023-05-22T02:10:52.089Z,17.33
2023-05-22T02:13:21.720Z,16.47
2023-05-22T02:15:49.576Z,16.50
2023-05-22T02:18:17.650Z,17.17
2023-05-22T02:20:46.298Z,16.37
2023-05-22T02:23:13.240Z,16.77
2023-05-22T02:25:40.012Z,15.70
2023-05-22T02:28:06.820Z,16.27
2023-05-22T02:30:33.674Z,16.03
2023-05-22T02:33:01.320Z,15.63
2023-05-22T02:35:28.099Z,15.80
2023-05-22T02:37:54.921Z,16.07
2023-05-22T02:40:21.697Z,15.63
2023-05-22T02:42:48.588Z,15.80
2023-05-22T02:45:15.467Z,16.07
2023-05-22T02:47:42.225Z,14.93
2023-05-22T02:50:10.321Z,14.63
2023-05-22T02:52:39.727Z,14.87
2023-05-22T02:55:08.507Z,14.43
2023-05-22T02:57:36.083Z,14.67
2023-05-22T03:00:06.035Z,15.63
2023-05-22T03:02:33.409Z,14.73
2023-05-22T03:05:00.248Z,14.40
2023-05-22T03:07:29.667Z,15.63
2023-05-22T03:09:56.663Z,15.17
2023-05-22T03:12:23.740Z,14.73
2023-05-22T03:14:51.158Z,14.50
2023-05-22T03:17:17.879Z,15.20
2023-05-22T03:19:44.628Z,14.93
2023-05-22T03:22:11.402Z,14.53
2023-05-22T03:24:38.160Z,14.67
2023-05-22T03:27:05.405Z,13.97
2023-05-22T03:29:32.226Z,14.87
2023-05-22T03:32:10.811Z,14.43
2023-05-22T03:34:37.746Z,13.97
2023-05-22T03:37:04.746Z,14.57
2023-05-22T03:39:31.480Z,15.30
2023-05-22T03:41:58.327Z,14.07
2023-05-22T03:44:25.191Z,14.17
2023-05-22T03:46:52.097Z,13.53
2023-05-22T03:49:18.872Z,14.43
2023-05-22T03:51:45.561Z,14.40
2023-05-22T03:54:14.012Z,14.47
2023-05-22T03:56:43.567Z,14.03
2023-05-22T03:59:10.329Z,14.37
2023-05-22T04:01:39.431Z,14.77
2023-05-22T04:04:06.419Z,14.03
2023-05-22T04:06:33.256Z,14.40
2023-05-22T04:09:01.322Z,14.40
2023-05-22T04:11:30.411Z,15.03
2023-05-22T04:14:00.090Z,15.33
2023-05-22T04:16:27.022Z,14.30
2023-05-22T04:18:53.845Z,13.93
2023-05-22T04:21:20.663Z,15.03
2023-05-22T04:23:47.670Z,15.20
2023-05-22T04:26:14.506Z,14.47
2023-05-22T04:28:45.995Z,13.87
2023-05-22T04:31:13.786Z,14.73
2023-05-22T04:33:48.362Z,14.27
2023-05-22T04:36:15.610Z,14.77
2023-05-22T04:38:44.829Z,14.23
2023-05-22T04:41:13.469Z,14.77
2023-05-22T04:43:40.328Z,15.83
2023-05-22T04:46:08.683Z,14.70
2023-05-22T04:48:36.996Z,14.17
2023-05-22T04:51:04.777Z,14.33
2023-05-22T04:53:33.381Z,15.30
2023-05-22T04:56:01.039Z,14.57
2023-05-22T04:58:27.765Z,14.07
2023-05-22T05:00:54.955Z,14.63
2023-05-22T05:03:22.812Z,14.07
2023-05-22T05:05:49.564Z,14.17
2023-05-22T05:08:16.348Z,14.57
2023-05-22T05:10:43.103Z,15.17
2023-05-22T05:13:09.949Z,14.80
2023-05-22T05:15:37.303Z,15.30
2023-05-22T05:18:04.492Z,14.37
2023-05-22T05:20:31.289Z,14.73
2023-05-22T05:22:58.018Z,14.70
2023-05-22T05:25:25.146Z,14.27
2023-05-22T05:27:51.839Z,14.57
2023-05-22T05:30:20.559Z,13.60
2023-05-22T05:32:47.629Z,14.17
2023-05-22T05:35:14.606Z,15.40
2023-05-22T05:37:41.978Z,13.83
2023-05-22T05:40:10.197Z,15.63
2023-05-22T05:42:36.960Z,14.27
2023-05-22T05:45:03.893Z,15.10
2023-05-22T05:47:30.797Z,15.23
2023-05-22T05:49:58.575Z,14.97
2023-05-22T05:52:27.112Z,14.80
2023-05-22T05:54:53.933Z,14.83
2023-05-22T05:57:21.949Z,15.20
2023-05-22T05:59:49.161Z,13.67
2023-05-22T06:02:16.290Z,14.60
2023-05-22T06:04:43.045Z,14.40
2023-05-22T06:07:09.727Z,15.27
2023-05-22T06:09:36.565Z,13.63
2023-05-22T06:12:03.648Z,13.20
2023-05-22T06:14:30.827Z,13.67
2023-05-22T06:16:57.645Z,15.23
2023-05-22T06:19:24.461Z,13.87
2023-05-22T06:21:52.206Z,16.13
2023-05-22T06:24:19.344Z,18.13
2023-05-22T06:26:46.735Z,17.27
2023-05-22T06:29:13.471Z,17.60
2023-05-22T06:31:40.294Z,17.13
2023-05-22T06:34:07.271Z,18.20
2023-05-22T06:36:34.750Z,17.47
2023-05-22T06:39:02.512Z,15.60
2023-05-22T06:41:29.212Z,15.93
2023-05-22T06:43:56.019Z,15.70
2023-05-22T06:46:25.775Z,18.70
2023-05-22T06:48:52.974Z,18.30
2023-05-22T06:51:19.830Z,16.87
2023-05-22T06:53:46.708Z,16.00
2023-05-22T06:56:13.622Z,17.33
2023-05-22T06:58:40.425Z,17.77
2023-05-22T07:01:07.901Z,18.00
2023-05-22T07:03:34.750Z,17.58
2023-05-22T07:06:02.256Z,17.00
2023-05-22T07:08:30.628Z,17.23
2023-05-22T07:10:57.929Z,16.92
2023-05-22T07:13:24.870Z,18.00
2023-05-22T07:15:51.671Z,17.50
2023-05-22T07:18:19.249Z,17.90
2023-05-22T07:20:46.130Z,18.10
2023-05-22T07:23:12.998Z,18.60
2023-05-22T07:25:39.879Z,20.88
2023-05-22T07:28:09.110Z,17.27
2023-05-22T07:30:38.059Z,17.45
2023-05-22T07:33:05.780Z,17.27
2023-05-22T07:35:32.771Z,16.92
2023-05-22T07:37:59.494Z,17.38
2023-05-22T07:40:26.753Z,16.42
2023-05-22T07:42:53.855Z,15.25
2023-05-22T07:45:20.719Z,16.30
2023-05-22T07:47:47.666Z,16.67
2023-05-22T07:50:14.529Z,16.67
2023-05-22T07:52:41.429Z,17.17
2023-05-22T07:55:08.749Z,16.98
2023-05-22T07:57:36.181Z,15.70
2023-05-22T08:00:09.436Z,16.60
2023-05-22T08:02:36.813Z,15.85
2023-05-22T08:05:04.640Z,16.85
2023-05-22T08:07:33.065Z,17.67
2023-05-22T08:10:01.364Z,16.52
2023-05-22T08:12:28.083Z,15.63
2023-05-22T08:14:54.792Z,15.13
2023-05-22T08:17:21.742Z,16.98
2023-05-22T08:19:48.632Z,15.65
2023-05-22T08:22:15.543Z,15.93
2023-05-22T08:24:43.896Z,17.30
2023-05-22T08:27:11.015Z,15.68
2023-05-22T08:29:37.739Z,14.98
2023-05-22T08:32:05.058Z,15.20
2023-05-22T08:34:32.937Z,16.10
2023-05-22T08:37:00.003Z,15.48
2023-05-22T08:39:28.366Z,14.77
2023-05-22T08:41:55.199Z,15.88
2023-05-22T08:44:22.099Z,15.07
2023-05-22T08:46:49.878Z,15.82
2023-05-22T08:49:20.805Z,15.60
2023-05-22T08:51:52.656Z,16.80
2023-05-22T08:54:22.909Z,15.27
2023-05-22T08:56:56.941Z,15.32
2023-05-22T08:59:24.537Z,15.88
2023-05-22T09:01:52.746Z,15.55
2023-05-22T09:04:23.640Z,16.15
2023-05-22T09:06:52.070Z,15.95
2023-05-22T09:09:19.086Z,15.57
2023-05-22T09:11:46.096Z,16.30
2023-05-22T09:14:13.056Z,16.75
2023-05-22T09:16:47.337Z,16.30
2023-05-22T09:19:15.070Z,16.98
2023-05-22T09:21:42.865Z,17.50
2023-05-22T09:24:11.002Z,15.77
2023-05-22T09:26:41.090Z,16.77
2023-05-22T09:29:08.117Z,16.73
2023-05-22T09:31:42.620Z,18.60
2023-05-22T09:34:11.205Z,18.77
2023-05-22T09:36:38.065Z,17.85
2023-05-22T09:39:05.095Z,16.73
2023-05-22T09:41:37.530Z,18.35
2023-05-22T09:44:13.916Z,17.98
2023-05-22T09:46:42.473Z,18.95
2023-05-22T09:49:09.383Z,17.10
2023-05-22T09:51:39.828Z,18.05
2023-05-22T09:54:09.552Z,17.13
2023-05-22T09:56:40.087Z,17.25
2023-05-22T09:59:09.543Z,17.40
2023-05-22T10:01:38.606Z,15.75
2023-05-22T10:04:06.545Z,16.48
2023-05-22T10:06:34.644Z,15.70
2023-05-22T10:09:07.117Z,14.68
2023-05-22T10:11:35.323Z,15.75
2023-05-22T10:14:03.933Z,17.55
2023-05-22T10:16:31.128Z,16.98
2023-05-22T10:18:59.603Z,16.58
2023-05-22T10:21:27.538Z,17.75
2023-05-22T10:23:55.680Z,18.23
2023-05-22T10:26:23.088Z,19.13
2023-05-22T10:29:04.884Z,17.83
2023-05-22T10:31:50.612Z,16.80
2023-05-22T10:34:40.322Z,16.77
2023-05-22T10:37:17.049Z,16.25
2023-05-22T10:40:01.840Z,18.08
2023-05-22T10:42:32.278Z,18.67
2023-05-22T10:45:02.040Z,17.25
2023-05-22T10:47:28.907Z,17.05
2023-05-22T10:50:11.459Z,19.02
2023-05-22T10:52:39.658Z,19.65
2023-05-22T10:55:10.297Z,19.77
2023-05-22T10:57:40.729Z,19.08
2023-05-22T11:00:13.033Z,18.63
2023-05-22T11:02:42.448Z,17.25
2023-05-22T11:05:34.467Z,19.88
2023-05-22T11:08:26.451Z,17.95
2023-05-22T11:10:59.136Z,20.55
2023-05-22T11:13:29.001Z,21.05
2023-05-22T11:15:57.639Z,19.52
2023-05-22T11:18:28.524Z,19.50
2023-05-22T11:20:55.817Z,19.38
2023-05-22T11:23:25.576Z,20.40
2023-05-22T11:25:52.406Z,19.98
2023-05-22T11:28:19.371Z,20.67
2023-05-22T11:30:46.737Z,20.80
2023-05-22T11:33:14.519Z,19.33
2023-05-22T11:35:43.160Z,19.60
2023-05-22T11:38:10.149Z,20.85
2023-05-22T11:40:37.021Z,19.70
2023-05-22T11:43:04.668Z,18.13
2023-05-22T11:45:31.532Z,19.50
2023-05-22T11:47:58.473Z,18.98
2023-05-22T11:50:40.306Z,18.27
2023-05-22T11:53:08.815Z,17.15
2023-05-22T11:55:36.830Z,17.63
2023-05-22T11:58:03.575Z,18.50
2023-05-22T12:00:32.107Z,17.02
2023-05-22T12:02:59.132Z,18.05
2023-05-22T12:05:26.074Z,17.00
2023-05-22T12:07:56.110Z,19.17
2023-05-22T12:10:22.912Z,18.55
2023-05-22T12:12:49.909Z,18.60
2023-05-22T12:15:20.590Z,17.38
2023-05-22T12:17:47.412Z,19.58
2023-05-22T12:20:14.697Z,17.17
2023-05-22T12:22:43.016Z,16.70
2023-05-22T12:25:17.578Z,17.65
2023-05-22T12:27:45.738Z,17.85
2023-05-22T12:30:14.679Z,19.20
2023-05-22T12:32:46.453Z,17.85
2023-05-22T12:35:17.415Z,17.65
2023-05-22T12:37:51.534Z,21.23
2023-05-22T12:40:18.958Z,19.88
2023-05-22T12:42:46.036Z,20.33
2023-05-22T12:45:13.487Z,18.63
2023-05-22T12:47:40.334Z,19.02
2023-05-22T12:50:07.969Z,20.05
2023-05-22T12:52:35.865Z,18.77
2023-05-22T12:55:02.663Z,19.80
2023-05-22T12:57:29.364Z,18.83
2023-05-22T12:59:56.370Z,18.60
2023-05-22T13:02:23.219Z,20.50
2023-05-22T13:04:50.023Z,19.17
2023-05-22T13:07:16.977Z,20.27
2023-05-22T13:09:43.697Z,19.23
2023-05-22T13:12:11.203Z,19.98
2023-05-22T13:14:40.425Z,19.73
2023-05-22T13:17:07.530Z,20.17
2023-05-22T13:19:34.492Z,18.13
2023-05-22T13:22:01.404Z,19.05
2023-05-22T13:24:28.121Z,20.13
2023-05-22T13:26:54.952Z,19.27
2023-05-22T13:29:21.666Z,20.90
2023-05-22T13:31:48.451Z,20.40
2023-05-22T13:34:15.313Z,20.08
2023-05-22T13:36:42.296Z,18.95
2023-05-22T13:39:09.115Z,19.65
2023-05-22T13:41:36.124Z,19.02
2023-05-22T13:46:47.926Z,19.85
2023-05-22T13:49:15.201Z,19.10
2023-05-22T13:51:41.926Z,16.92
2023-05-22T13:54:10.282Z,17.52
2023-05-22T13:56:37.148Z,26.13
2023-05-22T13:59:06.531Z,18.15
2023-05-22T14:01:35.677Z,19.05
2023-05-22T14:04:03.363Z,16.23
2023-05-22T14:06:30.613Z,17.00
2023-05-22T14:08:57.527Z,16.25
2023-05-22T14:11:24.287Z,16.38
2023-05-22T14:13:52.192Z,19.27
2023-05-22T14:16:19.110Z,16.73
2023-05-22T14:18:46.066Z,15.07
2023-05-22T14:21:12.925Z,13.07
2023-05-22T14:23:39.939Z,12.57
2023-05-22T14:26:06.629Z,13.80
2023-05-22T14:28:33.860Z,12.48
2023-05-22T14:31:00.634Z,13.93
2023-05-22T14:33:27.570Z,12.85
2023-05-22T14:35:54.301Z,12.57
2023-05-22T14:38:21.018Z,14.48
2023-05-22T14:40:47.813Z,14.52
2023-05-22T14:43:14.851Z,13.00
2023-05-22T14:45:41.753Z,12.88
2023-05-22T14:48:10.994Z,13.13
2023-05-22T14:50:38.005Z,13.90
2023-05-22T14:53:04.729Z,13.65
2023-05-22T14:55:31.731Z,13.73
2023-05-22T14:57:58.496Z,14.30
2023-05-22T15:00:26.324Z,15.30
2023-05-22T15:02:53.115Z,15.65
2023-05-22T15:05:20.048Z,16.75
2023-05-22T15:07:49.036Z,16.42
2023-05-22T15:10:17.749Z,15.98
2023-05-22T15:12:44.478Z,16.17
2023-05-22T15:15:12.444Z,15.95
2023-05-22T15:17:42.408Z,22.10
2023-05-22T15:20:11.179Z,17.38
2023-05-22T15:22:38.186Z,16.55
2023-05-22T15:25:09.680Z,16.30
2023-05-22T15:27:39.599Z,16.52
2023-05-22T15:30:09.482Z,16.92
2023-05-22T15:32:37.331Z,16.73
2023-05-22T15:35:05.750Z,16.45
2023-05-22T15:37:33.785Z,17.02
2023-05-22T15:40:01.512Z,15.55
2023-05-22T15:42:28.650Z,17.20
2023-05-22T15:44:55.784Z,15.48
2023-05-22T15:47:22.663Z,15.70
2023-05-22T15:49:49.523Z,15.60
2023-05-22T15:52:16.447Z,15.02
2023-05-22T15:54:43.201Z,14.20
2023-05-22T15:57:10.050Z,15.00
2023-05-22T15:59:36.919Z,14.10
2023-05-22T16:02:04.023Z,15.43
2023-05-22T16:04:31.134Z,14.82
2023-05-22T16:06:57.862Z,14.60
2023-05-22T16:09:24.574Z,14.23
2023-05-22T16:11:51.337Z,14.40
2023-05-22T16:14:18.175Z,14.73
2023-05-22T16:16:44.927Z,16.17
2023-05-22T16:19:11.795Z,15.85
2023-05-22T16:21:38.796Z,15.88
2023-05-22T16:24:07.105Z,15.52
2023-05-22T16:26:34.017Z,28.88
2023-05-22T16:29:01.060Z,16.20
2023-05-22T16:31:28.704Z,16.23
2023-05-22T16:33:55.832Z,16.33
2023-05-22T16:36:22.759Z,15.40
2023-05-22T16:38:50.018Z,16.80
2023-05-22T16:41:16.756Z,16.58
2023-05-22T16:43:43.531Z,17.58
2023-05-22T16:46:10.350Z,18.35
2023-05-22T16:48:37.140Z,18.40
2023-05-22T16:51:04.036Z,20.17
2023-05-22T16:53:31.085Z,20.90
2023-05-22T16:55:59.668Z,17.95
2023-05-22T16:58:26.623Z,17.52
2023-05-22T17:00:53.801Z,18.65
2023-05-22T17:03:20.754Z,16.88
2023-05-22T17:05:48.282Z,17.92
2023-05-22T17:08:15.100Z,18.00
2023-05-22T17:10:41.922Z,17.45
2023-05-22T17:13:09.304Z,16.48
2023-05-22T17:15:36.053Z,16.05
2023-05-22T17:18:03.054Z,15.27
2023-05-22T17:20:29.989Z,15.57
2023-05-22T17:22:56.762Z,14.77
2023-05-22T17:25:23.566Z,16.30
2023-05-22T17:27:50.296Z,14.82
2023-05-22T17:30:17.322Z,15.43
2023-05-22T17:32:45.097Z,15.95
2023-05-22T17:35:11.887Z,15.98
2023-05-22T17:37:38.619Z,16.30
2023-05-22T17:40:06.400Z,17.05
2023-05-22T17:42:33.200Z,16.63
2023-05-22T17:44:59.978Z,18.90
2023-05-22T17:47:26.696Z,19.58
2023-05-22T17:49:53.445Z,20.05
2023-05-22T17:52:20.360Z,19.85
2023-05-22T17:54:47.441Z,21.70
2023-05-22T17:57:14.381Z,21.10
2023-05-22T17:59:41.165Z,20.92
2023-05-22T18:02:09.140Z,22.42
2023-05-22T18:04:36.649Z,22.15
2023-05-22T18:07:03.819Z,21.30
2023-05-22T18:09:30.738Z,21.33
2023-05-22T18:12:03.478Z,21.08
2023-05-22T18:14:30.275Z,20.80
2023-05-22T18:16:58.320Z,20.80
2023-05-22T18:19:25.235Z,22.58
2023-05-22T18:21:53.868Z,20.13
2023-05-22T18:24:25.091Z,19.73
2023-05-22T18:26:52.154Z,21.73
2023-05-22T18:29:19.040Z,22.17
2023-05-22T18:31:46.025Z,19.38
2023-05-22T18:34:13.611Z,21.70
2023-05-22T18:36:43.450Z,21.90
2023-05-22T18:39:10.926Z,19.38
2023-05-22T18:41:37.755Z,19.02
2023-05-22T18:44:04.563Z,16.65
2023-05-22T18:46:31.651Z,14.65
2023-05-22T18:48:58.454Z,13.13
2023-05-22T18:51:25.408Z,13.18
2023-05-22T18:53:53.404Z,12.57
2023-05-22T18:56:20.637Z,11.75
2023-05-22T18:58:47.463Z,12.82
2023-05-22T19:01:16.721Z,11.75
2023-05-22T19:03:43.613Z,12.67
2023-05-22T19:06:10.452Z,11.02
2023-05-22T19:08:37.216Z,13.30
2023-05-22T19:11:04.054Z,11.75
2023-05-22T19:13:30.892Z,11.43
2023-05-22T19:15:57.818Z,11.48
2023-05-22T19:18:25.084Z,11.93
2023-05-22T19:20:51.838Z,13.13
2023-05-22T19:23:18.899Z,11.80
2023-05-22T19:25:45.763Z,12.80
2023-05-22T19:28:12.665Z,12.43
2023-05-22T19:30:39.901Z,12.23
2023-05-22T19:33:09.054Z,12.05
2023-05-22T19:35:36.008Z,11.77
2023-05-22T19:38:02.790Z,11.18
2023-05-22T19:40:29.608Z,8.70
2023-05-22T19:42:56.460Z,7.68
2023-05-22T19:45:25.857Z,7.40
2023-05-22T19:47:52.790Z,7.87
2023-05-22T19:50:19.882Z,6.93
2023-05-22T19:52:46.736Z,6.25
2023-05-22T19:55:16.334Z,6.82
2023-05-22T19:57:44.572Z,6.00
2023-05-22T20:00:12.488Z,5.53
2023-05-22T20:02:49.856Z,5.93
2023-05-22T20:05:16.998Z,6.27
2023-05-22T20:07:43.887Z,5.43
2023-05-22T20:10:11.190Z,6.53
2023-05-22T20:12:38.618Z,6.90
2023-05-22T20:15:10.462Z,7.13
2023-05-22T20:17:41.679Z,6.33
2023-05-22T20:20:09.542Z,6.33
2023-05-22T20:22:36.401Z,7.47
2023-05-22T20:25:05.276Z,7.60
2023-05-22T20:27:32.429Z,6.90
2023-05-22T20:30:00.282Z,7.27
2023-05-22T20:32:27.630Z,7.23
2023-05-22T20:34:55.354Z,7.53
2023-05-22T20:37:22.996Z,7.63
2023-05-22T20:39:50.197Z,7.67
2023-05-22T20:42:18.097Z,7.43
2023-05-22T20:44:44.954Z,7.70
2023-05-22T20:47:11.834Z,7.60
2023-05-22T20:49:38.965Z,7.40
2023-05-22T20:52:05.904Z,8.40
2023-05-22T20:54:34.614Z,8.17
2023-05-22T20:57:01.971Z,8.77
2023-05-22T20:59:29.015Z,7.60
2023-05-22T21:01:57.069Z,8.00
2023-05-22T21:04:24.198Z,7.37
2023-05-22T21:06:51.294Z,7.13
2023-05-22T21:09:18.275Z,7.60
2023-05-22T21:11:45.279Z,6.57
2023-05-22T21:14:12.113Z,7.33
2023-05-22T21:16:40.046Z,6.90
2023-05-22T21:19:07.375Z,6.30
2023-05-22T21:21:36.205Z,6.37
2023-05-22T21:24:03.448Z,6.50
2023-05-22T21:26:30.347Z,6.10
2023-05-22T21:28:57.232Z,6.33
2023-05-22T21:31:24.243Z,6.00
2023-05-22T21:33:50.952Z,6.07
2023-05-22T21:36:17.907Z,5.93
2023-05-22T21:38:45.116Z,5.70
2023-05-22T21:41:12.432Z,5.33
2023-05-22T21:43:39.549Z,6.23
2023-05-22T21:46:06.419Z,6.33
2023-05-22T21:48:33.266Z,6.03
2023-05-22T21:51:00.433Z,5.23
2023-05-22T21:53:28.029Z,6.40
2023-05-22T21:55:54.762Z,6.00
2023-05-22T21:58:21.831Z,5.17
2023-05-22T22:00:48.572Z,5.80
2023-05-22T22:03:15.846Z,5.73
2023-05-22T22:05:42.878Z,5.47
2023-05-22T22:08:09.609Z,6.20
2023-05-22T22:10:36.373Z,7.03
2023-05-22T22:13:03.526Z,6.53
2023-05-22T22:15:31.836Z,6.87
2023-05-22T22:18:02.610Z,7.00
2023-05-22T22:23:06.628Z,7.37
2023-05-22T22:25:34.124Z,7.43
2023-05-22T22:28:00.923Z,6.97
2023-05-22T22:30:27.670Z,6.90
2023-05-22T22:32:57.307Z,7.63
2023-05-22T22:35:24.174Z,7.60
2023-05-22T22:37:50.879Z,6.93
2023-05-22T22:40:18.723Z,7.43
2023-05-22T22:42:45.819Z,7.73
2023-05-22T22:45:12.672Z,8.40
2023-05-22T22:47:39.902Z,8.10
2023-05-22T22:50:07.354Z,8.07
2023-05-22T22:52:34.102Z,8.13
2023-05-22T22:55:02.038Z,8.00
2023-05-22T22:57:29.011Z,8.00
2023-05-22T22:59:55.894Z,7.93
2023-05-22T23:02:22.679Z,9.23
2023-05-22T23:04:49.520Z,8.20
2023-05-22T23:07:16.311Z,8.37
2023-05-22T23:09:43.039Z,9.43
2023-05-22T23:12:13.061Z,9.53
2023-05-22T23:14:39.850Z,8.60
2023-05-22T23:17:06.793Z,10.60
2023-05-22T23:19:33.801Z,9.07
2023-05-22T23:22:00.714Z,9.93
2023-05-22T23:24:27.447Z,9.43
2023-05-22T23:26:54.785Z,9.10
2023-05-22T23:29:21.432Z,9.93
2023-05-22T23:31:50.457Z,9.03
2023-05-22T23:34:19.203Z,11.03
2023-05-22T23:36:46.014Z,10.93
2023-05-22T23:39:12.692Z,11.10
2023-05-22T23:41:39.480Z,11.53
2023-05-22T23:44:08.864Z,10.83
2023-05-22T23:46:39.720Z,10.87
2023-05-22T23:49:07.563Z,10.47
2023-05-22T23:51:34.410Z,9.67
2023-05-22T23:54:01.289Z,9.70
2023-05-22T23:56:28.315Z,8.40
2023-05-22T23:58:55.240Z,8.27
